Time;durP1;ratioP1;P1;durP2;ratioP2;P2;SDS_P1;SDS_P2;PMS_P1;PMS_P2;Temp;Humidity;BMP_temperature;BMP_pressure;BME280_temperature;BME280_humidity;BME280_pressure;Samples;Min_cycle;Max_cycle;Signal;HPM_P1;HPM_P2
2021/07/22 00:00:22;;;;;;;11.83;9.90;;;16.30;91.50;;;;;;5073259;28;20187;-63
2021/07/22 00:02:49;;;;;;;13.17;9.87;;;16.20;91.40;;;;;;5073176;28;20173;-62
2021/07/22 00:05:15;;;;;;;11.03;9.93;;;16.30;91.50;;;;;;5073323;28;20259;-62
2021/07/22 00:07:40;;;;;;;10.17;9.10;;;16.20;91.70;;;;;;5072844;28;20969;-61
2021/07/22 00:10:06;;;;;;;9.73;8.80;;;16.20;91.60;;;;;;5073218;28;20199;-63
2021/07/22 00:12:32;;;;;;;12.10;9.50;;;16.20;91.60;;;;;;5073018;28;20164;-63
2021/07/22 00:14:58;;;;;;;10.80;9.53;;;16.10;91.60;;;;;;5072848;28;20463;-62
2021/07/22 00:17:23;;;;;;;11.53;10.37;;;16.00;91.60;;;;;;5072495;28;20225;-63
2021/07/22 00:19:49;;;;;;;11.57;9.67;;;16.00;91.70;;;;;;5072979;28;20247;-62
2021/07/22 00:22:14;;;;;;;10.60;9.60;;;16.00;91.70;;;;;;5072793;28;20171;-63
2021/07/22 00:24:40;;;;;;;10.53;9.47;;;16.00;91.70;;;;;;5072807;28;20169;-63
2021/07/22 00:27:05;;;;;;;10.97;9.87;;;16.00;91.80;;;;;;5072491;28;20183;-62
2021/07/22 00:29:34;;;;;;;10.00;8.50;;;16.00;91.70;;;;;;5072490;28;20255;-63
2021/07/22 00:32:00;;;;;;;12.47;10.30;;;15.90;91.70;;;;;;5072913;28;20172;-63
2021/07/22 00:34:25;;;;;;;10.13;9.13;;;15.90;91.70;;;;;;5072523;28;20898;-63
2021/07/22 00:36:51;;;;;;;9.73;8.73;;;15.90;91.70;;;;;;5072254;28;20163;-60
2021/07/22 00:39:18;;;;;;;9.83;8.73;;;15.90;91.80;;;;;;5072529;28;20190;-63
2021/07/22 00:41:43;;;;;;;11.50;9.80;;;15.80;91.70;;;;;;5073200;28;20167;-63
2021/07/22 00:44:09;;;;;;;9.53;8.60;;;15.80;91.70;;;;;;5072145;28;20409;-64
2021/07/22 00:46:35;;;;;;;10.77;9.57;;;15.70;92.40;;;;;;5072211;28;20413;-63
2021/07/22 00:49:00;;;;;;;10.47;8.67;;;15.80;93.70;;;;;;5072132;28;20619;-63
2021/07/22 00:51:26;;;;;;;11.73;10.00;;;15.80;93.50;;;;;;5072419;28;20246;-63
2021/07/22 00:53:51;;;;;;;9.00;8.20;;;15.70;93.70;;;;;;5072285;28;20213;-63
2021/07/22 00:56:17;;;;;;;12.07;9.83;;;15.70;94.20;;;;;;5069321;28;20250;-63
2021/07/22 00:58:42;;;;;;;10.23;8.83;;;15.70;94.30;;;;;;5071988;28;20188;-63
2021/07/22 01:01:08;;;;;;;12.57;10.07;;;15.70;95.10;;;;;;5071668;28;20617;-63
2021/07/22 01:03:38;;;;;;;12.23;9.63;;;15.80;94.90;;;;;;5071823;28;20698;-63
2021/07/22 01:06:04;;;;;;;8.90;8.10;;;15.70;94.60;;;;;;5071996;28;20186;-63
2021/07/22 01:08:29;;;;;;;9.50;8.60;;;15.70;94.70;;;;;;5071653;28;20449;-63
2021/07/22 01:10:55;;;;;;;10.30;9.33;;;15.70;95.10;;;;;;5071979;28;20220;-63
2021/07/22 01:13:21;;;;;;;11.30;8.80;;;15.80;95.20;;;;;;5071838;28;20167;-63
2021/07/22 01:15:46;;;;;;;9.27;8.37;;;15.70;94.60;;;;;;5072108;28;20246;-63
2021/07/22 01:18:12;;;;;;;9.77;8.37;;;15.70;94.90;;;;;;5071608;28;20266;-63
2021/07/22 01:20:37;;;;;;;8.43;7.67;;;15.60;95.20;;;;;;5071844;28;20205;-63
2021/07/22 01:23:03;;;;;;;9.30;8.40;;;15.60;95.30;;;;;;5071884;28;20166;-63
2021/07/22 01:25:29;;;;;;;10.07;8.77;;;15.60;95.20;;;;;;5072353;28;20176;-62
2021/07/22 01:27:56;;;;;;;8.83;7.80;;;15.50;95.00;;;;;;5071443;28;20191;-63
2021/07/22 01:30:21;;;;;;;8.60;7.80;;;15.50;95.10;;;;;;5071802;28;20888;-62
2021/07/22 01:32:47;;;;;;;10.03;9.00;;;15.50;95.10;;;;;;5071912;28;20492;-62
2021/07/22 01:35:14;;;;;;;11.27;10.10;;;15.40;95.50;;;;;;5071620;28;20167;-63
2021/07/22 01:37:43;;;;;;;10.13;8.83;;;15.50;95.70;;;;;;5071448;28;20179;-63
2021/07/22 01:40:10;;;;;;;9.03;8.20;;;15.50;95.90;;;;;;5071606;28;20484;-62
2021/07/22 01:42:36;;;;;;;8.63;7.90;;;15.40;95.70;;;;;;5071699;28;20409;-63
2021/07/22 01:45:06;;;;;;;8.53;7.70;;;15.30;95.40;;;;;;5071967;28;20404;-63
2021/07/22 01:47:34;;;;;;;11.97;8.50;;;15.20;94.80;;;;;;5071443;28;20195;-62
2021/07/22 01:50:00;;;;;;;9.00;8.20;;;15.10;94.70;;;;;;5071549;28;20972;-63
2021/07/22 01:52:25;;;;;;;9.60;8.70;;;14.90;94.40;;;;;;5071856;28;20843;-63
2021/07/22 01:54:51;;;;;;;9.40;8.50;;;14.80;94.40;;;;;;5071731;28;20437;-64
2021/07/22 01:57:17;;;;;;;9.10;8.20;;;14.90;95.40;;;;;;5071349;28;20219;-63
2021/07/22 01:59:42;;;;;;;8.37;7.60;;;14.90;95.10;;;;;;5071904;28;20194;-63
2021/07/22 02:02:10;;;;;;;9.30;8.27;;;14.70;94.70;;;;;;5071704;28;20175;-63
2021/07/22 02:04:37;;;;;;;8.67;7.87;;;14.50;94.90;;;;;;5071711;28;20243;-63
2021/07/22 02:07:03;;;;;;;10.93;8.50;;;14.60;95.30;;;;;;5071347;28;20504;-63
2021/07/22 02:09:29;;;;;;;10.60;9.50;;;14.70;95.60;;;;;;5071808;28;20532;-63
2021/07/22 02:11:56;;;;;;;9.13;8.23;;;14.50;94.80;;;;;;5071588;28;20412;-63
2021/07/22 02:14:23;;;;;;;8.37;7.50;;;14.50;94.80;;;;;;5071395;28;20159;-63
2021/07/22 02:16:48;;;;;;;10.13;8.27;;;14.50;95.20;;;;;;5073760;28;20894;-63
2021/07/22 02:19:14;;;;;;;8.20;7.50;;;14.50;94.90;;;;;;5075268;28;20409;-62
2021/07/22 02:21:40;;;;;;;9.00;7.60;;;14.20;94.40;;;;;;5075144;28;20175;-63
2021/07/22 02:24:08;;;;;;;9.10;8.20;;;14.20;95.10;;;;;;5075081;28;20405;-63
2021/07/22 02:26:34;;;;;;;8.63;7.73;;;14.30;95.90;;;;;;5074792;28;20776;-62
2021/07/22 02:29:03;;;;;;;7.40;6.70;;;14.40;96.10;;;;;;5074871;28;20448;-63
2021/07/22 02:31:29;;;;;;;7.63;6.83;;;14.40;96.30;;;;;;5073891;28;20554;-62
2021/07/22 02:33:54;;;;;;;10.73;7.90;;;14.50;96.60;;;;;;5074230;28;20432;-62
2021/07/22 02:36:20;;;;;;;8.20;7.40;;;14.70;97.30;;;;;;5075156;28;20177;-62
2021/07/22 02:38:46;;;;;;;7.57;6.87;;;14.70;97.40;;;;;;5074724;28;20266;-62
2021/07/22 02:41:12;;;;;;;9.00;8.10;;;14.80;97.70;;;;;;5075147;28;20254;-63
2021/07/22 02:43:39;;;;;;;9.67;7.70;;;14.80;97.80;;;;;;5074632;28;20964;-62
2021/07/22 02:46:08;;;;;;;9.30;7.50;;;14.80;97.70;;;;;;5074458;28;20175;-62
2021/07/22 02:48:34;;;;;;;9.63;8.20;;;14.80;97.80;;;;;;5074485;28;20445;-62
2021/07/22 02:51:01;;;;;;;8.03;7.23;;;14.90;97.90;;;;;;5074612;28;20463;-63
2021/07/22 02:53:30;;;;;;;9.37;8.57;;;14.80;97.70;;;;;;5074595;28;20406;-63
2021/07/22 02:55:56;;;;;;;14.27;7.67;;;14.90;97.70;;;;;;5074756;28;20405;-65
2021/07/22 02:58:22;;;;;;;8.97;8.07;;;14.80;97.50;;;;;;5074362;28;20429;-63
2021/07/22 03:00:47;;;;;;;8.33;7.43;;;14.90;97.40;;;;;;5074359;28;20440;-61
2021/07/22 03:03:13;;;;;;;12.27;8.20;;;14.80;97.30;;;;;;5074294;28;20167;-63
2021/07/22 03:05:38;;;;;;;10.03;8.10;;;14.80;97.30;;;;;;5074327;28;20175;-62
2021/07/22 03:08:04;;;;;;;9.03;7.90;;;14.80;97.20;;;;;;5074033;28;20663;-62
2021/07/22 03:10:29;;;;;;;8.30;7.43;;;14.80;97.00;;;;;;5074409;28;20213;-63
2021/07/22 03:12:55;;;;;;;8.50;7.60;;;14.80;96.90;;;;;;5074188;28;20175;-63
2021/07/22 03:15:20;;;;;;;9.30;8.30;;;14.80;97.00;;;;;;5074265;28;20167;-63
2021/07/22 03:17:46;;;;;;;8.33;7.43;;;14.70;96.80;;;;;;5073740;28;20695;-63
2021/07/22 03:20:13;;;;;;;10.50;6.77;;;14.80;97.00;;;;;;5074147;28;20174;-62
2021/07/22 03:22:38;;;;;;;6.80;6.10;;;14.80;97.20;;;;;;5073933;28;20401;-63
2021/07/22 03:25:04;;;;;;;8.43;7.60;;;14.80;96.90;;;;;;5074142;28;20824;-62
2021/07/22 03:27:30;;;;;;;9.97;6.53;;;14.70;96.80;;;;;;5072390;28;20187;-62
2021/07/22 03:29:55;;;;;;;7.93;6.93;;;14.70;96.80;;;;;;5073983;28;20452;-63
2021/07/22 03:32:21;;;;;;;7.90;7.10;;;14.70;96.90;;;;;;5074039;28;20175;-63
2021/07/22 03:34:47;;;;;;;10.43;7.17;;;14.70;96.70;;;;;;5073781;28;20197;-64
2021/07/22 03:37:12;;;;;;;8.17;7.37;;;14.70;96.70;;;;;;5073545;28;20929;-62
2021/07/22 03:39:38;;;;;;;7.30;6.70;;;14.70;96.50;;;;;;5073688;28;20225;-62
2021/07/22 03:42:07;;;;;;;11.63;6.93;;;14.70;96.40;;;;;;5073853;28;20168;-61
2021/07/22 03:44:33;;;;;;;8.20;7.40;;;14.70;96.40;;;;;;5073565;28;20170;-62
2021/07/22 03:46:58;;;;;;;7.20;6.20;;;14.60;96.30;;;;;;5073384;28;20402;-61
2021/07/22 03:49:25;;;;;;;7.13;6.43;;;14.60;96.50;;;;;;5073401;28;20933;-63
2021/07/22 03:51:54;;;;;;;6.50;5.97;;;14.70;96.70;;;;;;5073872;28;20186;-63
2021/07/22 03:54:20;;;;;;;7.37;6.67;;;14.70;96.70;;;;;;5073620;28;20413;-63
2021/07/22 03:56:46;;;;;;;9.43;6.97;;;14.70;96.70;;;;;;5073128;28;20799;-62
2021/07/22 03:59:11;;;;;;;7.43;6.10;;;14.70;96.50;;;;;;5073518;28;20526;-62
2021/07/22 04:01:37;;;;;;;6.90;6.20;;;14.70;96.30;;;;;;5073541;28;20199;-63
2021/07/22 04:04:02;;;;;;;6.20;5.70;;;14.60;96.10;;;;;;5073129;28;20619;-62
2021/07/22 04:06:28;;;;;;;7.90;5.77;;;14.60;96.10;;;;;;5072959;28;20254;-63
2021/07/22 04:08:53;;;;;;;6.57;5.97;;;14.60;96.30;;;;;;5073003;28;20290;-63
2021/07/22 04:11:19;;;;;;;6.63;6.03;;;14.60;96.10;;;;;;5073527;28;20190;-63
2021/07/22 04:13:44;;;;;;;6.90;6.20;;;14.50;96.00;;;;;;5073029;28;20171;-63
2021/07/22 04:16:10;;;;;;;7.10;5.87;;;14.50;96.10;;;;;;5072862;28;20217;-62
2021/07/22 04:18:36;;;;;;;7.60;6.53;;;14.60;96.30;;;;;;5072774;28;20195;-63
2021/07/22 04:21:02;;;;;;;9.47;6.27;;;14.60;96.20;;;;;;5073024;28;20239;-62
2021/07/22 04:23:28;;;;;;;6.63;5.77;;;14.60;96.30;;;;;;5073025;28;20591;-63
2021/07/22 04:25:53;;;;;;;5.97;5.37;;;14.60;96.20;;;;;;5072830;28;20508;-62
2021/07/22 04:28:19;;;;;;;6.90;6.20;;;14.60;96.10;;;;;;5072555;28;20218;-63
2021/07/22 04:30:44;;;;;;;6.97;6.37;;;14.60;96.10;;;;;;5072865;28;20168;-62
2021/07/22 04:33:10;;;;;;;6.43;5.83;;;14.60;96.10;;;;;;5072618;28;20545;-63
2021/07/22 04:35:35;;;;;;;7.50;6.73;;;14.60;96.20;;;;;;5072631;28;20687;-63
2021/07/22 04:38:01;;;;;;;6.00;5.27;;;14.70;96.30;;;;;;5071968;28;20659;-62
2021/07/22 04:40:26;;;;;;;5.87;5.30;;;14.70;96.10;;;;;;5072569;28;20181;-62
2021/07/22 04:42:52;;;;;;;5.97;5.47;;;14.60;95.90;;;;;;5072531;28;20233;-63
2021/07/22 04:45:17;;;;;;;5.37;4.97;;;14.70;96.50;;;;;;5072484;28;20175;-63
2021/07/22 04:47:43;;;;;;;6.80;6.20;;;14.80;96.20;;;;;;5071975;28;20731;-63
2021/07/22 04:50:09;;;;;;;6.57;4.80;;;14.80;96.40;;;;;;5072554;28;20203;-62
2021/07/22 04:52:35;;;;;;;7.13;6.43;;;14.80;96.00;;;;;;5072362;28;20546;-62
2021/07/22 04:55:00;;;;;;;7.00;6.40;;;14.80;96.00;;;;;;5072683;28;20410;-62
2021/07/22 04:57:26;;;;;;;7.43;6.63;;;14.90;96.10;;;;;;5071914;28;20218;-63
2021/07/22 04:59:51;;;;;;;8.30;5.53;;;14.90;96.20;;;;;;5072090;28;20256;-62
2021/07/22 05:02:19;;;;;;;7.00;6.30;;;14.80;96.10;;;;;;5072146;28;20235;-62
2021/07/22 05:04:45;;;;;;;6.87;6.17;;;14.70;96.30;;;;;;5072272;28;20175;-63
2021/07/22 05:07:11;;;;;;;6.07;5.57;;;14.30;96.60;;;;;;5071899;28;20445;-63
2021/07/22 05:09:37;;;;;;;13.23;7.07;;;14.20;97.20;;;;;;5072033;28;20540;-63
2021/07/22 05:12:03;;;;;;;10.80;5.77;;;14.30;98.40;;;;;;5072053;28;20410;-64
2021/07/22 05:14:29;;;;;;;6.10;5.50;;;14.60;99.10;;;;;;5071822;28;20187;-63
2021/07/22 05:16:54;;;;;;;6.73;6.13;;;14.70;99.30;;;;;;5071584;28;20538;-63
2021/07/22 05:19:20;;;;;;;7.10;6.40;;;14.90;99.40;;;;;;5072152;28;20178;-63
2021/07/22 05:21:45;;;;;;;6.73;5.97;;;15.10;99.20;;;;;;5072077;28;20179;-62
2021/07/22 05:24:11;;;;;;;6.80;5.83;;;15.20;98.90;;;;;;5071887;28;20635;-64
2021/07/22 05:26:37;;;;;;;7.53;4.90;;;15.40;99.00;;;;;;5071680;28;20190;-62
2021/07/22 05:29:03;;;;;;;8.00;5.63;;;15.40;99.00;;;;;;5071652;28;20207;-63
2021/07/22 05:31:29;;;;;;;7.40;5.60;;;15.50;99.00;;;;;;5071831;28;20496;-63
2021/07/22 05:33:54;;;;;;;6.43;5.83;;;15.60;99.00;;;;;;5071704;28;20769;-64
2021/07/22 05:36:20;;;;;;;6.43;5.23;;;15.70;98.90;;;;;;5070569;28;20635;-63
2021/07/22 05:38:46;;;;;;;7.70;5.30;;;15.90;99.00;;;;;;5070570;28;20602;-63
2021/07/22 05:41:11;;;;;;;7.17;5.60;;;16.10;98.60;;;;;;5071731;28;20179;-62
2021/07/22 05:43:37;;;;;;;6.10;5.47;;;16.30;98.30;;;;;;5071803;28;20175;-62
2021/07/22 05:46:03;;;;;;;6.00;5.33;;;16.40;97.80;;;;;;5071269;28;20179;-61
2021/07/22 05:48:29;;;;;;;6.07;5.43;;;16.50;97.50;;;;;;5071589;28;20413;-62
2021/07/22 05:50:58;;;;;;;6.23;5.73;;;16.70;97.20;;;;;;5073113;28;20175;-63
2021/07/22 05:53:23;;;;;;;7.83;6.10;;;16.80;96.90;;;;;;5075832;28;20179;-63
2021/07/22 05:55:49;;;;;;;5.80;5.23;;;16.90;96.70;;;;;;5075611;28;20401;-63
2021/07/22 05:58:14;;;;;;;5.27;4.77;;;17.00;96.50;;;;;;5075523;28;20186;-62
2021/07/22 06:00:40;;;;;;;5.30;4.80;;;17.20;96.50;;;;;;5075419;28;20235;-60
2021/07/22 06:03:06;;;;;;;5.57;4.90;;;17.20;96.40;;;;;;5075677;28;20533;-62
2021/07/22 06:05:34;;;;;;;5.87;5.27;;;17.30;96.50;;;;;;5075715;28;20175;-62
2021/07/22 06:08:03;;;;;;;7.80;5.40;;;17.40;96.40;;;;;;5075228;28;20535;-62
2021/07/22 06:10:29;;;;;;;6.33;5.73;;;17.40;96.30;;;;;;5057519;28;20457;-62
2021/07/22 06:12:55;;;;;;;5.53;5.03;;;17.50;96.30;;;;;;5075581;28;20424;-62
2021/07/22 06:15:21;;;;;;;6.57;5.23;;;17.50;96.30;;;;;;5075220;28;20407;-62
2021/07/22 06:17:47;;;;;;;5.37;4.90;;;17.60;96.40;;;;;;5075034;28;20429;-62
2021/07/22 06:20:13;;;;;;;5.23;4.83;;;17.70;96.30;;;;;;5075250;28;20171;-61
2021/07/22 06:22:38;;;;;;;5.60;5.10;;;17.70;96.20;;;;;;5075306;28;20274;-62
2021/07/22 06:25:06;;;;;;;5.20;4.70;;;17.80;96.30;;;;;;5075117;28;20171;-62
2021/07/22 06:27:32;;;;;;;5.83;5.33;;;17.80;96.20;;;;;;5074707;28;20191;-62
2021/07/22 06:30:02;;;;;;;5.07;4.67;;;17.80;96.30;;;;;;5074819;28;20449;-62
2021/07/22 06:32:27;;;;;;;5.60;5.10;;;17.90;96.30;;;;;;5075082;28;20229;-63
2021/07/22 06:34:53;;;;;;;5.33;4.83;;;18.00;96.50;;;;;;5074931;28;20818;-61
2021/07/22 06:37:18;;;;;;;5.80;5.27;;;18.10;96.70;;;;;;5074580;28;20241;-63
2021/07/22 06:39:44;;;;;;;6.13;5.53;;;18.20;96.70;;;;;;5074826;28;20644;-62
2021/07/22 06:42:09;;;;;;;5.10;4.60;;;18.30;96.70;;;;;;5074818;28;20655;-61
2021/07/22 06:44:35;;;;;;;6.17;5.60;;;18.40;96.60;;;;;;5074726;28;20257;-63
2021/07/22 06:47:01;;;;;;;6.10;5.50;;;18.40;96.60;;;;;;5074438;28;20278;-63
2021/07/22 06:49:27;;;;;;;5.23;4.53;;;18.50;96.60;;;;;;5074778;28;20202;-63
2021/07/22 06:51:52;;;;;;;7.73;6.97;;;18.60;96.60;;;;;;5074586;28;20413;-62
2021/07/22 06:54:18;;;;;;;6.47;5.87;;;18.60;96.50;;;;;;5074999;28;20290;-62
2021/07/22 06:56:44;;;;;;;7.53;6.40;;;18.60;96.30;;;;;;5074092;28;20182;-62
2021/07/22 06:59:10;;;;;;;7.17;6.47;;;18.60;96.70;;;;;;5074524;28;20409;-62
2021/07/22 07:01:35;;;;;;;6.40;5.80;;;18.70;96.40;;;;;;5074196;28;20601;-60
2021/07/22 07:04:04;;;;;;;6.40;5.57;;;18.70;96.10;;;;;;5074866;28;20522;-62
2021/07/22 07:06:32;;;;;;;7.87;5.43;;;18.80;95.80;;;;;;5073971;28;20175;-61
2021/07/22 07:08:58;;;;;;;8.07;6.60;;;18.90;95.60;;;;;;5074235;28;20449;-62
2021/07/22 07:11:23;;;;;;;9.17;6.73;;;18.90;95.40;;;;;;5074264;28;20416;-62
2021/07/22 07:13:49;;;;;;;7.50;6.80;;;19.00;95.10;;;;;;5074286;28;20687;-62
2021/07/22 07:16:14;;;;;;;7.47;6.00;;;19.00;94.90;;;;;;5073886;28;20812;-63
2021/07/22 07:18:40;;;;;;;10.27;7.80;;;18.90;94.80;;;;;;5074215;28;20209;-63
2021/07/22 07:21:06;;;;;;;7.10;6.47;;;18.80;94.00;;;;;;5074075;28;20182;-63
2021/07/22 07:23:35;;;;;;;9.27;8.57;;;19.00;94.80;;;;;;5074049;28;20210;-62
2021/07/22 07:26:01;;;;;;;9.33;6.60;;;19.00;94.40;;;;;;5073617;28;20168;-63
2021/07/22 07:28:27;;;;;;;8.37;6.90;;;19.10;94.70;;;;;;5073816;28;20444;-61
2021/07/22 07:30:53;;;;;;;8.90;7.37;;;19.10;94.60;;;;;;5074240;28;20556;-61
2021/07/22 07:33:20;;;;;;;7.57;6.77;;;19.20;94.20;;;;;;5073829;28;20882;-62
2021/07/22 07:35:46;;;;;;;8.50;7.50;;;19.20;93.90;;;;;;5073904;28;20409;-62
2021/07/22 07:38:12;;;;;;;9.43;7.37;;;19.30;94.30;;;;;;5073402;28;20433;-62
2021/07/22 07:40:38;;;;;;;6.57;6.03;;;19.40;94.00;;;;;;5073724;28;20425;-63
2021/07/22 07:43:04;;;;;;;9.13;8.00;;;19.50;93.80;;;;;;5073609;28;20730;-62
2021/07/22 07:45:30;;;;;;;8.27;7.47;;;19.40;93.70;;;;;;5073635;28;20421;-62
2021/07/22 07:47:55;;;;;;;8.53;7.67;;;19.40;93.70;;;;;;5073237;28;20434;-61
2021/07/22 07:50:21;;;;;;;9.17;6.17;;;19.50;94.80;;;;;;5073594;28;20211;-62
2021/07/22 07:52:47;;;;;;;9.50;8.60;;;19.60;94.60;;;;;;5073364;28;20240;-62
2021/07/22 07:55:14;;;;;;;9.23;8.30;;;19.60;94.80;;;;;;5073996;28;20170;-62
2021/07/22 07:57:40;;;;;;;10.50;8.60;;;19.50;93.10;;;;;;5073019;28;20197;-61
2021/07/22 08:00:07;;;;;;;9.53;8.67;;;19.60;92.70;;;;;;5073480;28;20427;-61
2021/07/22 08:02:33;;;;;;;9.87;7.67;;;19.70;92.30;;;;;;5073138;28;20902;-61
2021/07/22 08:04:59;;;;;;;11.70;9.17;;;19.90;92.90;;;;;;5073355;28;20414;-61
2021/07/22 08:07:25;;;;;;;10.60;9.37;;;19.90;92.70;;;;;;5072803;28;20671;-61
2021/07/22 08:09:51;;;;;;;10.50;9.33;;;20.00;91.80;;;;;;5073505;28;20502;-61
2021/07/22 08:12:16;;;;;;;15.50;10.43;;;20.10;92.20;;;;;;5073175;28;20265;-61
2021/07/22 08:14:42;;;;;;;10.83;9.50;;;20.30;90.90;;;;;;5072373;28;20451;-61
2021/07/22 08:17:12;;;;;;;12.83;10.40;;;20.50;92.00;;;;;;5072688;28;20211;-60
2021/07/22 08:19:38;;;;;;;10.20;8.40;;;20.60;91.40;;;;;;5073130;28;20163;-61
2021/07/22 08:22:03;;;;;;;12.30;10.30;;;20.80;91.60;;;;;;5072921;28;20436;-62
2021/07/22 08:24:29;;;;;;;16.47;10.73;;;20.90;91.20;;;;;;5072693;28;20229;-61
2021/07/22 08:26:54;;;;;;;10.40;8.37;;;21.00;91.50;;;;;;5072530;28;20180;-61
2021/07/22 08:29:20;;;;;;;15.50;9.30;;;21.20;91.50;;;;;;5072943;28;20210;-64
2021/07/22 08:31:46;;;;;;;11.10;9.90;;;21.40;91.10;;;;;;5072882;28;20178;-62
2021/07/22 08:34:14;;;;;;;9.83;8.27;;;21.60;90.90;;;;;;5072601;28;20171;-62
2021/07/22 08:36:41;;;;;;;12.20;8.53;;;21.70;90.90;;;;;;5072350;28;20191;-62
2021/07/22 08:39:06;;;;;;;9.13;8.27;;;21.90;91.00;;;;;;5072399;28;20462;-63
2021/07/22 08:41:32;;;;;;;12.20;10.53;;;22.00;90.40;;;;;;5072422;28;20417;-62
2021/07/22 08:44:01;;;;;;;9.83;8.50;;;22.00;89.80;;;;;;5072532;28;20229;-64
2021/07/22 08:46:26;;;;;;;11.03;9.93;;;21.90;90.50;;;;;;5072402;28;20175;-62
2021/07/22 08:48:53;;;;;;;10.00;9.03;;;21.90;90.80;;;;;;5072895;28;20972;-62
2021/07/22 08:51:20;;;;;;;9.87;8.97;;;22.00;90.70;;;;;;5072790;28;20250;-63
2021/07/22 08:53:46;;;;;;;10.40;9.47;;;22.20;90.40;;;;;;5071157;28;20405;-62
2021/07/22 08:56:12;;;;;;;11.93;8.70;;;22.30;89.00;;;;;;5072245;28;20409;-63
2021/07/22 08:58:39;;;;;;;11.90;10.37;;;22.50;88.20;;;;;;5072097;28;20726;-64
2021/07/22 09:01:08;;;;;;;11.03;9.93;;;22.70;89.00;;;;;;5072597;28;20418;-64
2021/07/22 09:03:34;;;;;;;15.47;10.40;;;23.00;87.90;;;;;;5072393;28;20415;-64
2021/07/22 09:06:00;;;;;;;12.53;10.93;;;23.10;87.20;;;;;;5071814;28;20406;-64
2021/07/22 09:08:26;;;;;;;12.60;9.40;;;23.30;89.20;;;;;;5071927;28;20562;-64
2021/07/22 09:11:05;;;;;;;13.80;10.00;;;23.40;87.20;;;;;;5072297;28;20429;-65
2021/07/22 09:13:31;;;;;;;11.57;10.27;;;23.60;88.50;;;;;;5071975;28;20317;-64
2021/07/22 09:15:56;;;;;;;16.30;10.80;;;23.80;87.60;;;;;;5071785;28;20951;-64
2021/07/22 09:18:28;;;;;;;11.63;9.20;;;24.00;85.90;;;;;;5071897;28;20187;-65
2021/07/22 09:20:54;;;;;;;12.47;11.17;;;24.30;87.20;;;;;;5071947;28;20168;-64
2021/07/22 09:23:27;;;;;;;12.57;10.17;;;24.50;84.40;;;;;;5072163;28;20816;-64
2021/07/22 09:25:54;;;;;;;16.20;11.47;;;24.50;84.60;;;;;;5071942;28;20394;-63
2021/07/22 09:28:25;;;;;;;14.27;12.80;;;24.60;82.30;;;;;;5071533;28;20421;-65
2021/07/22 09:30:58;;;;;;;13.93;12.40;;;24.60;83.10;;;;;;5071993;28;20405;-65
2021/07/22 09:33:43;;;;;;;12.43;10.37;;;24.70;81.50;;;;;;5071703;28;20479;-66
2021/07/22 09:36:21;;;;;;;12.83;11.00;;;25.10;83.70;;;;;;5071421;28;20442;-64
2021/07/22 09:38:47;;;;;;;12.80;10.80;;;25.40;84.50;;;;;;5071802;28;20413;-64
2021/07/22 09:41:20;;;;;;;13.30;10.17;;;25.70;79.50;;;;;;5071859;28;20823;-65
2021/07/22 09:43:45;;;;;;;10.60;9.70;;;25.80;80.10;;;;;;5071571;28;20749;-65
2021/07/22 09:46:11;;;;;;;11.10;9.90;;;26.10;81.20;;;;;;5071869;28;20401;-64
2021/07/22 09:48:39;;;;;;;13.37;9.97;;;26.30;78.30;;;;;;5071592;28;20187;-65
2021/07/22 09:51:05;;;;;;;11.80;10.60;;;26.50;79.40;;;;;;5071567;28;20179;-65
2021/07/22 09:53:32;;;;;;;13.03;9.80;;;26.50;77.60;;;;;;5071634;28;20736;-64
2021/07/22 09:55:57;;;;;;;12.83;11.50;;;26.70;75.90;;;;;;5071143;28;20232;-65
2021/07/22 09:58:23;;;;;;;11.73;10.43;;;26.80;75.90;;;;;;5071535;28;20425;-65
2021/07/22 10:00:51;;;;;;;11.73;10.53;;;26.90;77.80;;;;;;5071384;28;20179;-65
2021/07/22 10:03:19;;;;;;;13.53;10.00;;;27.20;76.10;;;;;;5071580;28;20411;-64
2021/07/22 10:06:18;;;;;;;11.23;9.87;;;27.20;75.20;;;;;;5071464;28;20405;-65
2021/07/22 10:08:46;;;;;;;10.67;9.60;;;27.30;76.30;;;;;;5070055;28;20510;-65
2021/07/22 10:11:13;;;;;;;9.00;8.10;;;27.40;72.90;;;;;;5071349;28;20827;-65
2021/07/22 10:13:42;;;;;;;9.00;8.07;;;27.60;72.70;;;;;;5071415;28;20402;-65
2021/07/22 10:16:12;;;;;;;8.53;7.83;;;27.90;74.30;;;;;;5071032;28;20405;-65
2021/07/22 10:18:46;;;;;;;12.43;11.03;;;28.20;71.20;;;;;;5071328;28;20421;-65
2021/07/22 10:21:12;;;;;;;11.37;10.17;;;28.40;73.10;;;;;;5071097;28;20393;-65
2021/07/22 10:23:42;;;;;;;11.10;10.00;;;28.60;72.80;;;;;;5071469;28;20398;-65
2021/07/22 10:26:08;;;;;;;10.43;9.40;;;28.40;73.20;;;;;;5071035;28;20397;-65
2021/07/22 10:28:34;;;;;;;12.80;10.90;;;28.40;72.90;;;;;;5071156;28;20413;-65
2021/07/22 10:31:04;;;;;;;11.00;9.87;;;28.30;70.00;;;;;;5071113;28;20408;-65
2021/07/22 10:33:33;;;;;;;11.77;9.27;;;28.60;72.20;;;;;;5071158;28;20274;-65
2021/07/22 10:35:59;;;;;;;9.97;9.07;;;28.70;71.20;;;;;;5070967;28;20412;-65
2021/07/22 10:38:44;;;;;;;11.97;8.63;;;29.20;74.40;;;;;;5075074;28;20894;-65
2021/07/22 10:41:30;;;;;;;11.73;9.90;;;29.60;71.20;;;;;;5074957;28;20826;-65
2021/07/22 10:43:55;;;;;;;10.33;9.30;;;29.70;68.40;;;;;;5074713;28;20429;-66
2021/07/22 10:46:21;;;;;;;10.43;9.30;;;29.80;72.00;;;;;;5074424;28;20406;-65
2021/07/22 10:48:47;;;;;;;10.10;9.13;;;29.50;68.20;;;;;;5074679;28;20282;-66
2021/07/22 10:51:18;;;;;;;11.77;10.63;;;29.90;70.80;;;;;;5074741;28;20163;-66
2021/07/22 10:53:54;;;;;;;11.17;10.13;;;30.20;67.20;;;;;;5074765;28;20764;-65
2021/07/22 10:56:22;;;;;;;12.43;11.20;;;30.10;64.70;;;;;;5074393;28;20401;-64
2021/07/22 10:58:57;;;;;;;11.10;10.00;;;29.90;65.60;;;;;;5074605;28;20422;-64
2021/07/22 11:01:41;;;;;;;10.60;9.60;;;29.90;66.40;;;;;;5074438;28;20590;-65
2021/07/22 11:04:22;;;;;;;10.60;9.53;;;29.90;65.50;;;;;;5074430;28;20409;-66
2021/07/22 11:07:00;;;;;;;11.17;10.10;;;29.90;68.50;;;;;;5073883;28;20394;-66
2021/07/22 11:09:50;;;;;;;10.40;9.40;;;29.90;62.20;;;;;;5074349;28;20539;-65
2021/07/22 11:12:43;;;;;;;10.60;9.60;;;29.50;66.00;;;;;;5074311;28;20971;-65
2021/07/22 11:15:10;;;;;;;11.13;10.03;;;29.00;64.90;;;;;;5074289;28;20451;-65
2021/07/22 11:17:36;;;;;;;11.07;9.90;;;28.20;66.20;;;;;;5073887;28;20420;-66
2021/07/22 11:20:20;;;;;;;13.13;10.10;;;27.80;67.70;;;;;;5074450;28;20410;-66
2021/07/22 11:22:50;;;;;;;11.30;9.60;;;28.00;70.10;;;;;;5074090;28;20458;-66
2021/07/22 11:25:17;;;;;;;11.00;10.00;;;28.50;71.40;;;;;;5074163;28;20489;-65
2021/07/22 11:27:44;;;;;;;11.67;10.67;;;28.50;67.80;;;;;;5073626;28;20428;-64
2021/07/22 11:30:11;;;;;;;10.10;9.10;;;28.40;67.20;;;;;;5072725;28;20540;-64
2021/07/22 11:32:37;;;;;;;13.63;10.63;;;28.00;68.90;;;;;;5073856;28;20410;-64
2021/07/22 11:35:03;;;;;;;10.30;9.27;;;27.50;70.70;;;;;;5072990;28;20405;-64
2021/07/22 11:37:29;;;;;;;10.83;9.83;;;27.30;69.80;;;;;;5055617;28;20430;-64
2021/07/22 11:39:56;;;;;;;10.60;9.50;;;27.20;69.90;;;;;;5072686;28;20414;-64
2021/07/22 11:42:23;;;;;;;10.60;9.60;;;27.10;71.10;;;;;;5073818;28;20776;-65
2021/07/22 11:45:06;;;;;;;10.57;9.67;;;27.00;71.80;;;;;;5073657;28;20489;-64
2021/07/22 11:47:35;;;;;;;11.40;10.40;;;26.90;72.40;;;;;;5054818;28;20809;-64
2021/07/22 11:50:04;;;;;;;10.63;9.67;;;26.80;72.70;;;;;;5071742;28;20453;-64
2021/07/22 11:52:33;;;;;;;10.03;9.23;;;26.70;72.90;;;;;;5056095;28;20413;-66
2021/07/22 11:55:12;;;;;;;11.50;10.33;;;26.60;73.20;;;;;;5074024;28;20414;-64
2021/07/22 11:57:43;;;;;;;10.97;10.07;;;26.50;75.70;;;;;;5071362;28;20425;-63
2021/07/22 12:00:12;;;;;;;12.70;11.50;;;26.50;76.20;;;;;;5037425;28;20437;-66
2021/07/22 12:02:43;;;;;;;11.20;10.20;;;26.40;77.00;;;;;;5073394;28;20424;-65
2021/07/22 12:05:21;;;;;;;12.90;10.70;;;26.40;74.60;;;;;;5073364;28;20483;-64
2021/07/22 12:07:58;;;;;;;14.23;12.83;;;26.60;74.40;;;;;;5071111;28;20441;-64
2021/07/22 12:10:33;;;;;;;11.77;10.67;;;27.00;78.90;;;;;;5055926;28;20452;-64
2021/07/22 12:13:03;;;;;;;10.33;9.40;;;27.30;73.60;;;;;;5073442;28;20409;-64
2021/07/22 12:15:31;;;;;;;12.50;11.33;;;27.40;74.00;;;;;;5055910;28;20467;-65
2021/07/22 12:17:57;;;;;;;10.73;9.73;;;27.30;73.20;;;;;;5071755;28;20425;-65
2021/07/22 12:20:29;;;;;;;13.93;12.60;;;27.20;73.70;;;;;;5071067;28;20445;-65
2021/07/22 12:22:55;;;;;;;12.20;11.10;;;27.10;73.30;;;;;;5072137;28;20841;-65
2021/07/22 12:25:21;;;;;;;13.40;12.03;;;27.00;76.10;;;;;;5073127;28;20417;-65
2021/07/22 12:27:49;;;;;;;10.93;9.93;;;27.00;75.00;;;;;;5071841;28;20898;-65
2021/07/22 12:30:33;;;;;;;12.23;10.97;;;27.20;77.50;;;;;;5072572;28;20194;-65
2021/07/22 12:33:04;;;;;;;11.57;10.37;;;27.20;73.00;;;;;;5056279;28;20463;-64
2021/07/22 12:35:44;;;;;;;12.13;10.97;;;27.20;77.00;;;;;;5055076;28;20421;-65
2021/07/22 12:38:10;;;;;;;11.83;10.73;;;27.20;74.90;;;;;;5071523;28;20437;-65
2021/07/22 12:40:57;;;;;;;12.83;11.67;;;27.40;75.40;;;;;;5071508;28;20414;-65